createdAt,value
2018-02-07T00:00:03.252Z,0
2018-02-07T00:01:02.750Z,0
2018-02-07T00:02:03.470Z,0
2018-02-07T00:03:03.173Z,0
2018-02-07T00:04:02.900Z,0
2018-02-07T00:05:03.138Z,0
2018-02-07T00:06:02.573Z,0
2018-02-07T00:07:02.816Z,0
2018-02-07T00:08:02.269Z,0
2018-02-07T00:09:02.768Z,0
2018-02-07T00:10:02.814Z,0
2018-02-07T00:11:02.509Z,0
2018-02-07T00:12:02.702Z,0
2018-02-07T00:13:02.940Z,0
2018-02-07T00:14:02.643Z,0
2018-02-07T00:15:02.619Z,0
2018-02-07T00:16:02.905Z,0
2018-02-07T00:17:02.578Z,0
2018-02-07T00:18:02.805Z,0
2018-02-07T00:19:02.789Z,0
2018-02-07T00:20:02.771Z,0
2018-02-07T00:21:03.002Z,0
2018-02-07T00:22:02.202Z,0
2018-02-07T00:23:02.686Z,0
2018-02-07T00:24:02.146Z,0
2018-02-07T00:25:02.640Z,0
2018-02-07T00:26:02.658Z,0
2018-02-07T00:27:02.325Z,0
2018-02-07T00:28:02.559Z,0
2018-02-07T00:29:02.541Z,0
2018-02-07T00:30:01.988Z,0
2018-02-07T00:31:02.229Z,0
2018-02-07T00:32:01.933Z,0
2018-02-07T00:33:01.912Z,0
2018-02-07T00:34:02.153Z,0
2018-02-07T00:35:02.123Z,0
2018-02-07T00:36:02.419Z,0
2018-02-07T00:37:02.599Z,0
2018-02-07T00:38:02.046Z,0
2018-02-07T00:39:02.289Z,0
2018-02-07T00:40:01.998Z,0
2018-02-07T00:41:02.241Z,0
2018-02-07T00:42:01.948Z,0
2018-02-07T00:43:01.664Z,0
2018-02-07T00:44:01.644Z,0
2018-02-07T00:45:01.622Z,0
2018-02-07T00:46:02.112Z,0
2018-02-07T00:47:02.091Z,0
2018-02-07T00:48:01.812Z,0
2018-02-07T00:49:02.037Z,0
2018-02-07T00:50:02.014Z,0
2018-02-07T00:51:01.464Z,0
2018-02-07T00:52:01.491Z,0
2018-02-07T00:53:02.206Z,0
2018-02-07T00:54:01.968Z,0
2018-02-07T00:55:01.628Z,0
2018-02-07T00:56:01.865Z,0
2018-02-07T00:57:01.866Z,0
2018-02-07T00:58:01.824Z,0
2018-02-07T00:59:01.528Z,0
2018-02-07T01:00:01.501Z,0
2018-02-07T01:01:01.478Z,0
2018-02-07T01:02:01.718Z,0
2018-02-07T01:03:01.430Z,0
2018-02-07T01:04:01.138Z,0
2018-02-07T01:05:01.393Z,0
2018-02-07T01:06:02.028Z,0
2018-02-07T01:07:01.377Z,0
2018-02-07T01:08:01.568Z,0
2018-02-07T01:09:01.015Z,0
2018-02-07T01:10:00.989Z,0
2018-02-07T01:11:00.961Z,0
2018-02-07T01:12:01.484Z,0
2018-02-07T01:13:01.447Z,0
2018-02-07T01:14:01.155Z,0
2018-02-07T01:15:01.389Z,0
2018-02-07T01:16:01.366Z,0
2018-02-07T01:17:01.076Z,0
2018-02-07T01:18:01.312Z,0
2018-02-07T01:19:01.023Z,0
2018-02-07T01:20:01.266Z,0
2018-02-07T01:21:01.311Z,0
2018-02-07T01:22:01.535Z,0
2018-02-07T01:23:01.189Z,0
2018-02-07T01:24:00.641Z,0
2018-02-07T01:25:01.135Z,0
2018-02-07T01:26:00.585Z,0
2018-02-07T01:27:01.085Z,0
2018-02-07T01:28:00.276Z,0
2018-02-07T01:29:00.510Z,0
2018-02-07T01:30:00.487Z,0
2018-02-07T01:31:00.998Z,0
2018-02-07T01:32:01.021Z,0
2018-02-07T01:33:00.154Z,0
2018-02-07T01:34:00.930Z,0
2018-02-07T01:35:00.360Z,0
2018-02-07T01:36:00.603Z,0
2018-02-07T01:37:00.893Z,0
2018-02-07T01:38:01.074Z,0
2018-02-07T01:39:00.262Z,0
2018-02-07T01:40:00.770Z,0
2018-02-07T01:41:01.007Z,0
2018-02-07T01:42:00.717Z,0
2018-02-07T01:43:00.740Z,0
2018-02-07T01:43:59.875Z,0
2018-02-07T01:45:00.642Z,0
2018-02-07T01:46:00.356Z,0
2018-02-07T01:47:00.332Z,0
2018-02-07T01:47:59.774Z,0
2018-02-07T01:49:00.012Z,0
2018-02-07T01:50:00.245Z,0
2018-02-07T01:51:00.225Z,0
2018-02-07T01:52:00.195Z,0
2018-02-07T01:52:59.929Z,0
2018-02-07T01:54:00.153Z,0
2018-02-07T01:55:00.130Z,0
2018-02-07T01:56:00.102Z,0
2018-02-07T01:56:59.817Z,0
2018-02-07T01:57:59.846Z,0
2018-02-07T01:59:00.552Z,0
2018-02-07T02:00:00.264Z,0
2018-02-07T02:00:59.717Z,0
2018-02-07T02:01:59.694Z,0
2018-02-07T02:02:59.921Z,0
2018-02-07T02:04:00.429Z,0
2018-02-07T02:05:00.188Z,0
2018-02-07T02:05:59.586Z,0
2018-02-07T02:07:00.083Z,0
2018-02-07T02:07:59.587Z,0
2018-02-07T02:09:00.317Z,0
2018-02-07T02:09:59.753Z,0
2018-02-07T02:10:59.730Z,0
2018-02-07T02:11:59.440Z,0
2018-02-07T02:12:59.667Z,0
2018-02-07T02:13:59.653Z,0
2018-02-07T02:14:59.624Z,0
2018-02-07T02:16:00.122Z,0
2018-02-07T02:16:59.833Z,0
2018-02-07T02:17:59.547Z,0
2018-02-07T02:19:00.050Z,0
2018-02-07T02:19:59.495Z,0
2018-02-07T02:20:59.470Z,0
2018-02-07T02:21:59.462Z,0
2018-02-07T02:22:59.162Z,0
2018-02-07T02:23:59.132Z,0
2018-02-07T02:24:59.413Z,0
2018-02-07T02:25:59.611Z,0
2018-02-07T02:26:59.064Z,0
2018-02-07T02:27:59.564Z,0
2018-02-07T02:28:59.010Z,0
2018-02-07T02:29:59.510Z,0
2018-02-07T02:30:59.224Z,0
2018-02-07T02:31:59.194Z,0
2018-02-07T02:32:59.178Z,0
2018-02-07T02:33:59.414Z,0
2018-02-07T02:34:58.851Z,0
2018-02-07T02:35:59.623Z,0
2018-02-07T02:36:59.339Z,0
2018-02-07T02:37:58.790Z,0
2018-02-07T02:38:59.081Z,0
2018-02-07T02:39:59.009Z,0
2018-02-07T02:40:58.973Z,0
2018-02-07T02:41:59.207Z,0
2018-02-07T02:42:59.179Z,0
2018-02-07T02:43:58.896Z,0
2018-02-07T02:44:59.160Z,0
2018-02-07T02:45:59.139Z,0
2018-02-07T02:46:59.088Z,0
2018-02-07T02:47:59.056Z,0
2018-02-07T02:48:58.822Z,0
2018-02-07T02:49:58.494Z,0
2018-02-07T02:50:58.458Z,0
2018-02-07T02:51:58.972Z,0
2018-02-07T02:52:58.931Z,0
2018-02-07T02:53:58.650Z,0
2018-02-07T02:54:58.621Z,0
2018-02-07T02:55:58.600Z,0
2018-02-07T02:56:58.830Z,0
2018-02-07T02:57:58.544Z,0
2018-02-07T02:58:59.160Z,0
2018-02-07T02:59:58.751Z,0
2018-02-07T03:00:58.206Z,0
2018-02-07T03:01:58.180Z,0
2018-02-07T03:02:58.681Z,0
2018-02-07T03:03:58.181Z,0
2018-02-07T03:04:58.108Z,0
2018-02-07T03:05:58.346Z,0
2018-02-07T03:06:59.037Z,0
2018-02-07T03:07:58.027Z,0
2018-02-07T03:08:58.589Z,0
2018-02-07T03:09:58.240Z,0
2018-02-07T03:10:58.484Z,0
2018-02-07T03:11:58.211Z,0
2018-02-07T03:12:57.903Z,0
2018-02-07T03:13:58.155Z,0
2018-02-07T03:14:58.378Z,0
2018-02-07T03:15:58.351Z,0
2018-02-07T03:16:58.075Z,0
2018-02-07T03:17:58.048Z,0
2018-02-07T03:18:58.021Z,0
2018-02-07T03:19:58.304Z,0
2018-02-07T03:20:58.018Z,0
2018-02-07T03:21:57.952Z,0
2018-02-07T03:22:57.920Z,0
2018-02-07T03:23:57.636Z,0
2018-02-07T03:24:58.198Z,0
2018-02-07T03:25:58.378Z,0
2018-02-07T03:26:58.295Z,0
2018-02-07T03:27:58.062Z,0
2018-02-07T03:28:57.774Z,0
2018-02-07T03:29:57.739Z,0
2018-02-07T03:30:58.001Z,0
2018-02-07T03:31:57.968Z,0
2018-02-07T03:32:57.663Z,0
2018-02-07T03:33:57.641Z,0
2018-02-07T03:34:57.680Z,0
2018-02-07T03:35:57.332Z,0
2018-02-07T03:36:57.038Z,0
2018-02-07T03:37:57.279Z,0
2018-02-07T03:38:57.512Z,0
2018-02-07T03:39:57.765Z,0
2018-02-07T03:40:57.727Z,0
2018-02-07T03:41:57.178Z,0
2018-02-07T03:42:57.419Z,0
2018-02-07T03:43:57.394Z,0
2018-02-07T03:44:57.678Z,0
2018-02-07T03:45:57.350Z,0
2018-02-07T03:46:57.055Z,0
2018-02-07T03:47:57.292Z,0
2018-02-07T03:48:57.790Z,0
2018-02-07T03:49:57.498Z,0
2018-02-07T03:50:56.948Z,0
2018-02-07T03:51:57.196Z,0
2018-02-07T03:52:57.440Z,0
2018-02-07T03:53:57.137Z,0
2018-02-07T03:54:56.896Z,0
2018-02-07T03:55:57.089Z,0
2018-02-07T03:56:57.594Z,0
2018-02-07T03:57:57.082Z,0
2018-02-07T03:58:56.483Z,0
2018-02-07T03:59:56.990Z,0
2018-02-07T04:00:56.485Z,0
2018-02-07T04:01:56.944Z,0
2018-02-07T04:02:56.654Z,0
2018-02-07T04:03:56.630Z,0
2018-02-07T04:04:57.125Z,0
2018-02-07T04:05:56.845Z,0
2018-02-07T04:06:57.076Z,0
2018-02-07T04:07:56.790Z,0
2018-02-07T04:08:56.501Z,0
2018-02-07T04:09:57.012Z,0
2018-02-07T04:10:56.500Z,0
2018-02-07T04:11:56.697Z,0
2018-02-07T04:12:56.669Z,0
2018-02-07T04:13:56.900Z,0
2018-02-07T04:14:57.152Z,0
2018-02-07T04:15:56.341Z,0
2018-02-07T04:16:56.570Z,0
2018-02-07T04:17:56.541Z,0
2018-02-07T04:18:57.053Z,0
2018-02-07T04:19:56.236Z,0
2018-02-07T04:20:57.002Z,0
2018-02-07T04:21:56.721Z,0
2018-02-07T04:22:56.728Z,0
2018-02-07T04:23:56.393Z,0
2018-02-07T04:24:56.415Z,0
2018-02-07T04:25:56.393Z,0
2018-02-07T04:26:56.062Z,0
2018-02-07T04:27:56.028Z,0
2018-02-07T04:28:56.264Z,0
2018-02-07T04:29:56.549Z,0
2018-02-07T04:30:56.217Z,0
2018-02-07T04:31:56.191Z,0
2018-02-07T04:32:56.427Z,0
2018-02-07T04:33:56.407Z,0
2018-02-07T04:34:55.849Z,0
2018-02-07T04:35:56.150Z,0
2018-02-07T04:36:55.809Z,0
2018-02-07T04:37:55.794Z,0
2018-02-07T04:38:56.021Z,0
2018-02-07T04:39:56.522Z,0
2018-02-07T04:40:55.973Z,0
2018-02-07T04:41:55.678Z,0
2018-02-07T04:42:56.180Z,0
2018-02-07T04:43:55.920Z,0
2018-02-07T04:44:56.450Z,0
2018-02-07T04:45:55.577Z,0
2018-02-07T04:46:56.135Z,0
2018-02-07T04:47:55.791Z,0
2018-02-07T04:48:55.502Z,0
2018-02-07T04:49:56.310Z,0
2018-02-07T04:50:55.979Z,0
2018-02-07T04:51:55.441Z,0
2018-02-07T04:52:55.469Z,0
2018-02-07T04:53:55.899Z,0
2018-02-07T04:54:55.871Z,0
2018-02-07T04:55:55.847Z,0
2018-02-07T04:56:55.088Z,0
2018-02-07T04:57:55.274Z,0
2018-02-07T04:58:55.526Z,0
2018-02-07T04:59:55.492Z,0
2018-02-07T05:00:55.470Z,0
2018-02-07T05:01:55.491Z,0
2018-02-07T05:02:55.674Z,0
2018-02-07T05:03:55.123Z,0
2018-02-07T05:04:55.364Z,0
2018-02-07T05:05:55.071Z,0
2018-02-07T05:06:55.310Z,0
2018-02-07T05:07:55.287Z,0
2018-02-07T05:08:54.998Z,0
2018-02-07T05:09:55.773Z,0
2018-02-07T05:10:54.959Z,0
2018-02-07T05:11:54.975Z,0
2018-02-07T05:12:55.171Z,0
2018-02-07T05:13:54.881Z,0
2018-02-07T05:14:55.117Z,0
2018-02-07T05:15:55.083Z,0
2018-02-07T05:16:54.862Z,0
2018-02-07T05:17:55.042Z,0
2018-02-07T05:18:55.013Z,0
2018-02-07T05:19:54.988Z,0
2018-02-07T05:20:55.479Z,0
2018-02-07T05:21:54.989Z,0
2018-02-07T05:22:54.916Z,0
2018-02-07T05:23:54.895Z,0
2018-02-07T05:24:54.867Z,0
2018-02-07T05:25:55.105Z,0
2018-02-07T05:26:54.860Z,0
2018-02-07T05:27:54.796Z,0
2018-02-07T05:28:54.495Z,0
2018-02-07T05:29:55.003Z,0
2018-02-07T05:30:54.972Z,0
2018-02-07T05:31:54.685Z,0
2018-02-07T05:32:54.932Z,0
2018-02-07T05:33:55.105Z,0
2018-02-07T05:34:54.620Z,0
2018-02-07T05:35:54.326Z,0
2018-02-07T05:36:54.881Z,0
2018-02-07T05:37:54.006Z,0
2018-02-07T05:38:55.038Z,0
2018-02-07T05:39:54.496Z,0
2018-02-07T05:40:54.457Z,0
2018-02-07T05:41:54.696Z,0
2018-02-07T05:42:54.407Z,0
2018-02-07T05:43:54.386Z,0
2018-02-07T05:44:54.397Z,0
2018-02-07T05:45:54.987Z,0
2018-02-07T05:46:54.053Z,0
2018-02-07T05:47:54.338Z,0
2018-02-07T05:48:54.524Z,0
2018-02-07T05:49:54.507Z,0
2018-02-07T05:50:54.483Z,0
2018-02-07T05:51:54.703Z,0
2018-02-07T05:52:53.957Z,0
2018-02-07T05:53:53.705Z,0
2018-02-07T05:54:54.635Z,0
2018-02-07T05:55:53.821Z,0
2018-02-07T05:56:54.318Z,0
2018-02-07T05:57:53.826Z,0
2018-02-07T05:58:54.210Z,0
2018-02-07T05:59:53.992Z,0
2018-02-07T06:00:54.225Z,0
2018-02-07T06:01:54.460Z,0
2018-02-07T06:02:53.967Z,0
2018-02-07T06:03:53.880Z,0
2018-02-07T06:04:54.133Z,0
2018-02-07T06:05:53.839Z,0
2018-02-07T06:06:54.081Z,0
2018-02-07T06:07:53.841Z,0
2018-02-07T06:08:54.281Z,0
2018-02-07T06:09:54.000Z,0
2018-02-07T06:10:53.877Z,0
2018-02-07T06:11:53.677Z,0
2018-02-07T06:12:53.391Z,0
2018-02-07T06:13:54.042Z,0
2018-02-07T06:14:54.181Z,0
2018-02-07T06:15:54.108Z,0
2018-02-07T06:16:53.583Z,0
2018-02-07T06:17:53.533Z,0
2018-02-07T06:18:53.558Z,0
2018-02-07T06:19:53.484Z,0
2018-02-07T06:20:53.460Z,0
2018-02-07T06:21:53.975Z,0
2018-02-07T06:22:53.670Z,0
2018-02-07T06:23:53.648Z,0
2018-02-07T06:24:53.881Z,0
2018-02-07T06:25:53.323Z,0
2018-02-07T06:26:53.304Z,0
2018-02-07T06:27:53.278Z,0
2018-02-07T06:28:53.043Z,0
2018-02-07T06:29:53.239Z,0
2018-02-07T06:30:53.464Z,0
2018-02-07T06:31:52.916Z,0
2018-02-07T06:32:52.620Z,0
2018-02-07T06:33:53.175Z,0
2018-02-07T06:34:53.100Z,0
2018-02-07T06:35:52.815Z,0
2018-02-07T06:36:52.786Z,0
2018-02-07T06:37:53.558Z,0
2018-02-07T06:38:53.064Z,0
2018-02-07T06:39:52.447Z,0
2018-02-07T06:40:52.943Z,0
2018-02-07T06:41:52.657Z,0
2018-02-07T06:42:53.160Z,0
2018-02-07T06:43:53.136Z,0
2018-02-07T06:44:53.374Z,0
2018-02-07T06:45:52.300Z,0
2018-02-07T06:46:52.797Z,0
2018-02-07T06:47:52.773Z,0
2018-02-07T06:48:52.793Z,0
2018-02-07T06:49:53.253Z,0
2018-02-07T06:50:52.962Z,0
2018-02-07T06:51:52.926Z,0
2018-02-07T06:52:52.390Z,0
2018-02-07T06:53:52.878Z,0
2018-02-07T06:54:53.117Z,0
2018-02-07T06:55:52.831Z,0
2018-02-07T06:56:53.066Z,0
2018-02-07T06:57:52.799Z,0
2018-02-07T06:58:52.556Z,0
2018-02-07T06:59:52.467Z,0
2018-02-07T07:00:52.439Z,0
2018-02-07T07:01:52.721Z,5
2018-02-07T07:02:52.383Z,5
2018-02-07T07:03:52.099Z,5
2018-02-07T07:04:52.342Z,5
2018-02-07T07:05:52.843Z,5
2018-02-07T07:06:52.755Z,5
2018-02-07T07:07:52.325Z,5
2018-02-07T07:08:52.232Z,5
2018-02-07T07:09:52.519Z,5
2018-02-07T07:10:51.926Z,5
2018-02-07T07:11:52.426Z,10
2018-02-07T07:12:52.394Z,10
2018-02-07T07:13:51.844Z,10
2018-02-07T07:14:52.348Z,10
2018-02-07T07:15:52.593Z,10
2018-02-07T07:16:51.775Z,10
2018-02-07T07:17:51.745Z,10
2018-02-07T07:18:51.978Z,15
2018-02-07T07:19:52.265Z,15
2018-02-07T07:20:52.187Z,15
2018-02-07T07:21:51.902Z,15
2018-02-07T07:22:51.610Z,15
2018-02-07T07:23:52.115Z,15
2018-02-07T07:24:52.089Z,20
2018-02-07T07:25:51.534Z,20
2018-02-07T07:26:52.300Z,20
2018-02-07T07:27:51.745Z,25
2018-02-07T07:28:51.728Z,25
2018-02-07T07:29:51.745Z,25
2018-02-07T07:30:51.672Z,25
2018-02-07T07:31:51.916Z,25
2018-02-07T07:32:51.885Z,25
2018-02-07T07:33:51.851Z,25
2018-02-07T07:34:51.575Z,25
2018-02-07T07:35:51.546Z,25
2018-02-07T07:36:51.520Z,30
2018-02-07T07:37:51.545Z,30
2018-02-07T07:38:52.072Z,30
2018-02-07T07:39:51.233Z,35
2018-02-07T07:40:51.158Z,35
2018-02-07T07:41:51.129Z,35
2018-02-07T07:42:51.101Z,40
2018-02-07T07:43:51.679Z,40
2018-02-07T07:44:51.587Z,40
2018-02-07T07:45:50.763Z,45
2018-02-07T07:46:51.787Z,45
2018-02-07T07:47:51.239Z,45
2018-02-07T07:48:50.945Z,50
2018-02-07T07:49:51.497Z,50
2018-02-07T07:50:51.152Z,50
2018-02-07T07:51:51.128Z,50
2018-02-07T07:52:51.199Z,50
2018-02-07T07:53:51.096Z,50
2018-02-07T07:54:51.061Z,50
2018-02-07T07:55:50.766Z,50
2018-02-07T07:56:51.004Z,55
2018-02-07T07:57:51.241Z,55
2018-02-07T07:58:51.219Z,55
2018-02-07T07:59:51.199Z,55
2018-02-07T08:00:51.214Z,55
2018-02-07T08:01:50.612Z,55
2018-02-07T08:02:51.111Z,55
2018-02-07T08:03:50.821Z,55
2018-02-07T08:04:51.061Z,55
2018-02-07T08:05:51.096Z,60
2018-02-07T08:06:50.743Z,60
2018-02-07T08:07:50.988Z,65
2018-02-07T08:08:50.966Z,65
2018-02-07T08:09:50.678Z,70
2018-02-07T08:10:50.915Z,70
2018-02-07T08:11:50.620Z,75
2018-02-07T08:12:50.606Z,75
2018-02-07T08:13:50.316Z,75
2018-02-07T08:14:50.549Z,80
2018-02-07T08:15:50.568Z,85
2018-02-07T08:16:50.230Z,90
2018-02-07T08:17:50.730Z,85
2018-02-07T08:18:50.987Z,90
2018-02-07T08:19:50.157Z,95
2018-02-07T08:20:50.664Z,95
2018-02-07T08:21:50.104Z,95
2018-02-07T08:22:50.351Z,95
2018-02-07T08:23:50.317Z,95
2018-02-07T08:24:50.877Z,95
2018-02-07T08:25:50.587Z,95
2018-02-07T08:26:50.765Z,95
2018-02-07T08:27:50.476Z,90
2018-02-07T08:28:50.257Z,85
2018-02-07T08:29:50.694Z,85
2018-02-07T08:30:50.456Z,80
2018-02-07T08:31:50.118Z,80
2018-02-07T08:32:49.833Z,80
2018-02-07T08:33:50.066Z,80
2018-02-07T08:34:50.040Z,75
2018-02-07T08:35:50.328Z,75
2018-02-07T08:36:49.988Z,75
2018-02-07T08:37:49.964Z,75
2018-02-07T08:38:49.946Z,75
2018-02-07T08:39:49.652Z,85
2018-02-07T08:40:49.630Z,90
2018-02-07T08:41:49.608Z,95
2018-02-07T08:42:49.850Z,100
2018-02-07T08:43:49.570Z,100
2018-02-07T08:44:50.075Z,100
2018-02-07T08:45:49.762Z,100
2018-02-07T08:46:50.052Z,100
2018-02-07T08:47:49.714Z,100
2018-02-07T08:48:49.955Z,105
2018-02-07T08:49:49.932Z,105
2018-02-07T08:50:50.168Z,105
2018-02-07T08:51:49.403Z,105
2018-02-07T08:52:49.856Z,105
2018-02-07T08:53:49.308Z,105
2018-02-07T08:54:50.060Z,110
2018-02-07T08:55:49.517Z,110
2018-02-07T08:56:49.535Z,110
2018-02-07T08:57:49.210Z,115
2018-02-07T08:58:49.978Z,115
2018-02-07T08:59:49.674Z,115
2018-02-07T09:00:49.132Z,115
2018-02-07T09:01:49.371Z,115
2018-02-07T09:02:49.610Z,120
2018-02-07T09:03:49.319Z,120
2018-02-07T09:04:49.545Z,120
2018-02-07T09:05:48.995Z,120
2018-02-07T09:06:49.504Z,125
2018-02-07T09:07:49.213Z,125
2018-02-07T09:08:49.190Z,130
2018-02-07T09:09:49.430Z,135
2018-02-07T09:10:49.141Z,135
2018-02-07T09:11:49.380Z,135
2018-02-07T09:12:48.828Z,145
2018-02-07T09:13:49.059Z,150
2018-02-07T09:14:49.029Z,140
2018-02-07T09:15:49.005Z,140
2018-02-07T09:16:48.995Z,135
2018-02-07T09:17:49.271Z,135
2018-02-07T09:18:49.196Z,130
2018-02-07T09:19:49.172Z,135
2018-02-07T09:20:48.901Z,135
2018-02-07T09:21:49.119Z,130
2018-02-07T09:22:49.108Z,140
2018-02-07T09:23:48.549Z,180
2018-02-07T09:24:49.064Z,215
2018-02-07T09:25:48.767Z,240
2018-02-07T09:26:48.739Z,295
2018-02-07T09:27:48.768Z,335
2018-02-07T09:28:48.953Z,335
2018-02-07T09:29:49.190Z,345
2018-02-07T09:30:48.910Z,345
2018-02-07T09:31:48.365Z,345
2018-02-07T09:32:48.593Z,385
2018-02-07T09:33:48.841Z,390
2018-02-07T09:34:48.809Z,370
2018-02-07T09:35:48.827Z,355
2018-02-07T09:36:48.773Z,355
2018-02-07T09:37:48.803Z,385
2018-02-07T09:38:48.733Z,335
2018-02-07T09:39:48.182Z,215
2018-02-07T09:40:48.969Z,180
2018-02-07T09:41:48.688Z,175
2018-02-07T09:42:48.685Z,165
2018-02-07T09:43:48.620Z,280
2018-02-07T09:44:48.345Z,395
2018-02-07T09:45:48.576Z,375
2018-02-07T09:46:48.313Z,385
2018-02-07T09:47:48.066Z,350
2018-02-07T09:48:48.778Z,310
2018-02-07T09:49:47.971Z,215
2018-02-07T09:50:48.213Z,170
2018-02-07T09:51:48.258Z,180
2018-02-07T09:52:48.514Z,195
2018-02-07T09:53:48.153Z,235
2018-02-07T09:54:48.135Z,270
2018-02-07T09:55:47.841Z,235
2018-02-07T09:56:48.348Z,335
2018-02-07T09:57:48.072Z,415
2018-02-07T09:58:47.841Z,280
2018-02-07T09:59:48.023Z,195
2018-02-07T10:00:47.749Z,200
2018-02-07T10:01:47.984Z,200
2018-02-07T10:02:48.487Z,205
2018-02-07T10:03:48.463Z,225
2018-02-07T10:04:47.922Z,340
2018-02-07T10:05:48.167Z,460
2018-02-07T10:06:47.885Z,480
2018-02-07T10:07:48.128Z,365
2018-02-07T10:08:48.109Z,335
2018-02-07T10:09:48.082Z,345
2018-02-07T10:10:47.534Z,275
2018-02-07T10:11:48.043Z,230
2018-02-07T10:12:47.789Z,240
2018-02-07T10:13:47.261Z,320
2018-02-07T10:14:47.718Z,370
2018-02-07T10:15:47.694Z,410
2018-02-07T10:16:47.676Z,495
2018-02-07T10:17:47.921Z,535
2018-02-07T10:18:47.909Z,535
2018-02-07T10:19:48.151Z,485
2018-02-07T10:20:47.077Z,410
2018-02-07T10:21:48.110Z,495
2018-02-07T10:22:47.614Z,550
2018-02-07T10:23:47.600Z,450
2018-02-07T10:24:47.007Z,415
2018-02-07T10:25:47.239Z,495
2018-02-07T10:26:47.748Z,560
2018-02-07T10:27:47.467Z,540
2018-02-07T10:28:47.763Z,385
2018-02-07T10:29:47.439Z,365
2018-02-07T10:30:47.938Z,490
2018-02-07T10:31:47.915Z,595
2018-02-07T10:32:47.846Z,630
2018-02-07T10:33:47.674Z,575
2018-02-07T10:34:47.345Z,545
2018-02-07T10:35:47.854Z,585
2018-02-07T10:36:47.322Z,590
2018-02-07T10:37:47.564Z,540
2018-02-07T10:38:47.853Z,455
2018-02-07T10:39:47.003Z,420
2018-02-07T10:40:46.985Z,355
2018-02-07T10:41:47.239Z,315
2018-02-07T10:42:47.469Z,230
2018-02-07T10:43:47.505Z,215
2018-02-07T10:44:46.910Z,245
2018-02-07T10:45:47.170Z,295
2018-02-07T10:46:46.874Z,420
2018-02-07T10:47:47.380Z,555
2018-02-07T10:48:47.408Z,505
2018-02-07T10:49:46.834Z,380
2018-02-07T10:50:47.075Z,315
2018-02-07T10:51:46.529Z,400
2018-02-07T10:52:47.034Z,380
2018-02-07T10:53:47.280Z,315
2018-02-07T10:54:46.477Z,345
2018-02-07T10:55:46.723Z,320
2018-02-07T10:56:46.709Z,275
2018-02-07T10:57:46.991Z,330
2018-02-07T10:58:46.941Z,335
2018-02-07T10:59:46.924Z,305
2018-02-07T11:00:46.637Z,395
2018-02-07T11:01:47.143Z,520
2018-02-07T11:02:46.859Z,560
2018-02-07T11:03:47.101Z,570
2018-02-07T11:04:46.881Z,530
2018-02-07T11:05:46.812Z,480
2018-02-07T11:06:47.201Z,430
2018-02-07T11:07:46.773Z,390
2018-02-07T11:08:47.028Z,330
2018-02-07T11:09:47.111Z,345
2018-02-07T11:10:46.721Z,450
2018-02-07T11:11:46.977Z,495
2018-02-07T11:12:46.690Z,435
2018-02-07T11:13:47.193Z,455
2018-02-07T11:14:47.019Z,520
2018-02-07T11:15:46.850Z,500
2018-02-07T11:16:46.628Z,460
2018-02-07T11:17:46.646Z,590
2018-02-07T11:18:46.855Z,635
2018-02-07T11:19:46.578Z,640
2018-02-07T11:20:46.561Z,605
2018-02-07T11:21:46.544Z,505
2018-02-07T11:22:46.806Z,470
2018-02-07T11:23:46.768Z,425
2018-02-07T11:24:46.807Z,420
2018-02-07T11:25:46.480Z,470
2018-02-07T11:26:46.995Z,380
2018-02-07T11:27:46.458Z,365
2018-02-07T11:28:46.434Z,335
2018-02-07T11:29:46.154Z,380
2018-02-07T11:30:46.400Z,415
2018-02-07T11:31:46.644Z,430
2018-02-07T11:32:46.364Z,540
2018-02-07T11:33:46.624Z,580
2018-02-07T11:34:46.069Z,515
2018-02-07T11:35:46.400Z,525
2018-02-07T11:36:46.306Z,560
2018-02-07T11:37:46.553Z,600
2018-02-07T11:38:46.281Z,635
2018-02-07T11:39:45.992Z,605
2018-02-07T11:40:46.300Z,545
2018-02-07T11:41:46.288Z,505
2018-02-07T11:42:46.742Z,495
2018-02-07T11:43:46.475Z,530
2018-02-07T11:44:46.776Z,520
2018-02-07T11:45:46.444Z,500
2018-02-07T11:46:46.418Z,450
2018-02-07T11:47:46.141Z,410
2018-02-07T11:48:46.135Z,400
2018-02-07T11:49:45.846Z,375
2018-02-07T11:50:46.410Z,365
2018-02-07T11:51:46.080Z,280
2018-02-07T11:52:46.072Z,255
2018-02-07T11:53:46.323Z,230
2018-02-07T11:54:46.043Z,225
2018-02-07T11:55:46.306Z,220
2018-02-07T11:56:45.744Z,220
2018-02-07T11:57:45.731Z,230
2018-02-07T11:58:45.728Z,235
2018-02-07T11:59:45.966Z,235
2018-02-07T12:00:46.590Z,230
2018-02-07T12:01:45.944Z,225
2018-02-07T12:02:45.917Z,225
2018-02-07T12:03:46.161Z,230
2018-02-07T12:04:45.908Z,240
2018-02-07T12:05:46.132Z,245
2018-02-07T12:06:45.847Z,265
2018-02-07T12:07:46.363Z,290
2018-02-07T12:08:46.102Z,340
2018-02-07T12:09:46.056Z,450
2018-02-07T12:10:45.248Z,545
2018-02-07T12:11:45.756Z,620
2018-02-07T12:12:45.743Z,720
2018-02-07T12:13:45.980Z,760
2018-02-07T12:14:45.725Z,760
2018-02-07T12:15:45.221Z,755
2018-02-07T12:16:46.197Z,745
2018-02-07T12:17:45.931Z,735
2018-02-07T12:18:45.701Z,740
2018-02-07T12:19:45.628Z,755
2018-02-07T12:20:45.621Z,765
2018-02-07T12:21:45.347Z,780
2018-02-07T12:22:45.638Z,780
2018-02-07T12:23:45.572Z,805
2018-02-07T12:24:45.303Z,810
2018-02-07T12:25:45.813Z,790
2018-02-07T12:26:45.800Z,785
2018-02-07T12:27:45.519Z,800
2018-02-07T12:28:45.547Z,805
2018-02-07T12:29:44.961Z,780
2018-02-07T12:30:45.744Z,765
2018-02-07T12:31:45.479Z,780
2018-02-07T12:32:45.450Z,780
2018-02-07T12:33:45.188Z,760
2018-02-07T12:34:45.184Z,760
2018-02-07T12:35:45.687Z,755
2018-02-07T12:36:45.163Z,745
2018-02-07T12:37:45.419Z,730
2018-02-07T12:38:45.716Z,720
2018-02-07T12:39:45.423Z,710
2018-02-07T12:40:45.649Z,715
2018-02-07T12:41:45.658Z,725
2018-02-07T12:42:45.095Z,745
2018-02-07T12:43:45.641Z,745
2018-02-07T12:44:45.348Z,760
2018-02-07T12:45:45.596Z,765
2018-02-07T12:46:45.616Z,765
2018-02-07T12:47:45.340Z,770
2018-02-07T12:48:45.848Z,740
2018-02-07T12:49:45.567Z,720
2018-02-07T12:50:45.303Z,720
2018-02-07T12:51:45.027Z,715
2018-02-07T12:52:45.283Z,710
2018-02-07T12:53:45.598Z,710
2018-02-07T12:54:45.786Z,705
2018-02-07T12:55:45.247Z,695
2018-02-07T12:56:45.556Z,690
2018-02-07T12:57:45.494Z,690
2018-02-07T12:58:45.217Z,690
2018-02-07T12:59:45.475Z,675
2018-02-07T13:00:45.488Z,670
2018-02-07T13:01:45.204Z,670
2018-02-07T13:02:45.497Z,675
2018-02-07T13:03:45.173Z,670
2018-02-07T13:04:44.904Z,655
2018-02-07T13:05:44.893Z,650
2018-02-07T13:06:45.463Z,655
2018-02-07T13:07:45.350Z,660
2018-02-07T13:08:45.405Z,660
2018-02-07T13:09:45.389Z,645
2018-02-07T13:10:44.864Z,650
2018-02-07T13:11:45.159Z,650
2018-02-07T13:12:44.841Z,660
2018-02-07T13:13:45.092Z,660
2018-02-07T13:14:45.619Z,660
2018-02-07T13:15:44.546Z,650
2018-02-07T13:16:45.119Z,635
2018-02-07T13:17:45.322Z,620
2018-02-07T13:18:45.323Z,615
2018-02-07T13:19:45.312Z,620
2018-02-07T13:20:45.313Z,625
2018-02-07T13:21:45.605Z,620
2018-02-07T13:22:45.282Z,610
2018-02-07T13:23:44.750Z,620
2018-02-07T13:24:45.261Z,620
2018-02-07T13:25:44.465Z,610
2018-02-07T13:26:45.043Z,610
2018-02-07T13:27:45.256Z,600
2018-02-07T13:28:44.965Z,580
2018-02-07T13:29:45.486Z,590
2018-02-07T13:30:44.689Z,605
2018-02-07T13:31:45.255Z,605
2018-02-07T13:32:44.951Z,585
2018-02-07T13:33:44.924Z,575
2018-02-07T13:34:44.923Z,560
2018-02-07T13:35:44.916Z,560
2018-02-07T13:36:44.701Z,565
2018-02-07T13:37:45.161Z,560
2018-02-07T13:38:44.945Z,550
2018-02-07T13:39:44.622Z,540
2018-02-07T13:40:44.344Z,540
2018-02-07T13:41:45.181Z,545
2018-02-07T13:42:45.116Z,555
2018-02-07T13:43:45.112Z,550
2018-02-07T13:44:44.847Z,545
2018-02-07T13:45:45.361Z,540
2018-02-07T13:46:44.613Z,520
2018-02-07T13:47:44.556Z,515
2018-02-07T13:48:44.805Z,510
2018-02-07T13:49:44.278Z,510
2018-02-07T13:50:45.322Z,505
2018-02-07T13:51:45.048Z,500
2018-02-07T13:52:44.513Z,485
2018-02-07T13:53:45.028Z,485
2018-02-07T13:54:45.020Z,495
2018-02-07T13:55:44.756Z,500
2018-02-07T13:56:45.105Z,485
2018-02-07T13:57:45.047Z,475
2018-02-07T13:58:44.532Z,475
2018-02-07T13:59:44.717Z,470
2018-02-07T14:00:44.971Z,460
2018-02-07T14:01:44.176Z,450
2018-02-07T14:02:45.234Z,460
2018-02-07T14:03:44.428Z,455
2018-02-07T14:04:44.954Z,455
2018-02-07T14:05:44.669Z,455
2018-02-07T14:06:44.707Z,445
2018-02-07T14:07:44.914Z,435
2018-02-07T14:08:45.173Z,415
2018-02-07T14:09:44.900Z,405
2018-02-07T14:10:45.161Z,395
2018-02-07T14:11:44.616Z,390
2018-02-07T14:12:44.346Z,385
2018-02-07T14:13:44.854Z,380
2018-02-07T14:14:44.857Z,370
2018-02-07T14:15:44.843Z,365
2018-02-07T14:16:44.620Z,360
2018-02-07T14:17:44.824Z,335